Time;durP1;ratioP1;P1;durP2;ratioP2;P2;SDS_P1;SDS_P2;PMS_P1;PMS_P2;Temp;Humidity;BMP_temperature;BMP_pressure;BME280_temperature;BME280_humidity;BME280_pressure;Samples;Min_cycle;Max_cycle;Signal;HPM_P1;HPM_P2
2022/08/29 00:00:34;;;;;;;15.43;6.00;;;;;;;21.34;56.57;93967.44;5065318;28;20342;-78
2022/08/29 00:03:00;;;;;;;19.15;7.18;;;;;;;21.29;56.76;93964.31;5065198;28;20091;-77
2022/08/29 00:05:31;;;;;;;17.13;7.47;;;;;;;21.27;57.32;93969.31;5065126;28;20028;-77
2022/08/29 00:07:58;;;;;;;16.30;6.47;;;;;;;21.22;57.12;93971.25;5064951;28;20054;-78
2022/08/29 00:10:24;;;;;;;10.90;6.65;;;;;;;21.18;57.34;93964.25;5065235;28;20017;-77
2022/08/29 00:12:50;;;;;;;11.80;6.68;;;;;;;21.13;57.69;93964.63;5064881;28;20040;-77
2022/08/29 00:15:15;;;;;;;10.75;6.45;;;;;;;21.12;57.61;93966.53;5065065;28;20079;-77
2022/08/29 00:17:42;;;;;;;12.00;5.97;;;;;;;21.06;57.66;93961.84;5065017;28;20139;-77
2022/08/29 00:20:10;;;;;;;14.40;7.28;;;;;;;21.01;58.20;93965.69;5064965;28;20021;-76
2022/08/29 00:22:35;;;;;;;16.60;6.93;;;;;;;20.95;58.03;93967.97;5064878;28;20096;-76
2022/08/29 00:25:01;;;;;;;13.13;6.50;;;;;;;20.92;58.29;93966.00;5064780;28;20025;-77
2022/08/29 00:27:27;;;;;;;15.50;6.15;;;;;;;20.89;58.60;93968.72;5064869;28;20013;-76
2022/08/29 00:29:53;;;;;;;19.00;6.25;;;;;;;20.88;58.42;93967.91;5064827;28;20017;-76
2022/08/29 00:32:18;;;;;;;10.88;6.75;;;;;;;20.82;58.11;93964.78;5064571;28;20017;-76
2022/08/29 00:34:44;;;;;;;15.90;7.32;;;;;;;20.80;58.29;93972.50;5064683;28;20013;-76
2022/08/29 00:37:09;;;;;;;18.35;6.72;;;;;;;20.77;59.05;93962.41;5064872;28;20353;-76
2022/08/29 00:39:35;;;;;;;16.33;6.90;;;;;;;20.68;58.98;93967.38;5064587;28;20092;-76
2022/08/29 00:42:00;;;;;;;12.15;7.35;;;;;;;20.61;59.61;93964.59;5064535;28;20115;-77
2022/08/29 00:44:26;;;;;;;13.73;7.65;;;;;;;20.61;59.59;93959.19;5064598;28;20025;-77
2022/08/29 00:46:56;;;;;;;22.35;6.80;;;;;;;20.56;59.48;93954.88;5064490;28;20096;-77
2022/08/29 00:49:40;;;;;;;16.95;7.78;;;;;;;20.58;59.36;93958.00;5064524;28;20021;-76
2022/08/29 00:52:12;;;;;;;15.02;6.18;;;;;;;20.56;59.68;93948.69;5064202;28;20048;-77
2022/08/29 00:54:42;;;;;;;14.30;7.13;;;;;;;20.54;59.70;93951.00;5064521;28;20029;-77
2022/08/29 00:57:08;;;;;;;15.88;6.60;;;;;;;20.45;59.90;93945.88;5064337;28;20082;-77
2022/08/29 00:59:38;;;;;;;13.27;7.38;;;;;;;20.39;60.10;93948.16;5064326;28;20029;-76
2022/08/29 01:02:06;;;;;;;15.75;6.68;;;;;;;20.39;60.14;93947.38;5064020;28;20028;-77
2022/08/29 01:04:32;;;;;;;17.58;7.07;;;;;;;20.40;59.89;93955.13;5064234;28;20248;-77
2022/08/29 01:06:58;;;;;;;16.58;8.35;;;;;;;20.37;59.79;93944.25;5064034;28;20092;-78
2022/08/29 01:09:25;;;;;;;13.70;7.75;;;;;;;20.28;59.88;93949.22;5063809;28;20044;-77
2022/08/29 01:14:35;;;;;;;13.73;7.28;;;;;;;20.26;58.77;93951.50;5063994;28;20016;-77
2022/08/29 01:17:03;;;;;;;16.08;7.35;;;;;;;20.31;59.45;93951.16;5063664;28;20025;-78
2022/08/29 01:19:42;;;;;;;19.10;6.97;;;;;;;20.32;59.07;93947.31;5063971;28;20032;-77
2022/08/29 01:22:22;;;;;;;13.20;6.55;;;;;;;20.34;59.30;93950.44;5064033;28;20029;-78
2022/08/29 01:24:51;;;;;;;9.43;6.00;;;;;;;20.32;59.35;93948.09;5063242;28;20024;-78
2022/08/29 01:27:20;;;;;;;14.70;6.60;;;;;;;20.28;58.68;93958.09;5063834;28;20055;-78
2022/08/29 01:29:46;;;;;;;9.32;6.18;;;;;;;20.23;58.49;93956.50;5063598;28;20021;-78
2022/08/29 01:32:11;;;;;;;12.07;5.55;;;;;;;20.22;58.86;93951.47;5063429;28;20307;-78
2022/08/29 01:34:39;;;;;;;10.98;6.00;;;;;;;20.23;59.08;93948.41;5063645;28;20040;-78
2022/08/29 01:37:06;;;;;;;11.45;5.88;;;;;;;20.18;59.42;93951.44;5063374;28;20212;-78
2022/08/29 01:39:35;;;;;;;14.00;6.72;;;;;;;20.17;59.55;93952.59;5063411;28;20028;-78
2022/08/29 01:42:04;;;;;;;18.55;6.43;;;;;;;20.14;59.76;93958.72;5063373;28;20052;-78
2022/08/29 01:44:30;;;;;;;13.80;6.68;;;;;;;20.09;60.31;93952.88;5063182;28;20219;-78
2022/08/29 01:46:58;;;;;;;12.32;6.28;;;;;;;20.04;60.58;93952.06;5063359;28;20021;-78
2022/08/29 01:49:23;;;;;;;16.73;6.40;;;;;;;20.00;60.22;93958.59;5063174;28;20025;-78
2022/08/29 01:51:49;;;;;;;16.30;5.80;;;;;;;20.00;59.90;93953.16;5062948;28;20347;-78
2022/08/29 01:54:15;;;;;;;8.60;5.85;;;;;;;19.97;59.86;93953.94;5063088;28;20039;-78
2022/08/29 01:56:48;;;;;;;19.20;6.72;;;;;;;19.96;59.91;93957.75;5062051;28;20017;-78
2022/08/29 01:59:16;;;;;;;12.30;7.40;;;;;;;19.93;60.36;93953.09;5063143;28;20192;-78
2022/08/29 02:02:05;;;;;;;10.52;6.40;;;;;;;19.92;60.41;93957.72;5062839;28;20021;-77
2022/08/29 02:04:31;;;;;;;19.73;7.68;;;;;;;19.85;60.29;93954.94;5059083;28;20115;-77
2022/08/29 02:06:57;;;;;;;14.02;5.82;;;;;;;19.84;58.11;93959.59;5062746;28;20353;-77
2022/08/29 02:09:24;;;;;;;14.13;6.32;;;;;;;19.87;58.09;93968.13;5062916;28;20021;-77
2022/08/29 02:11:49;;;;;;;18.25;6.75;;;;;;;19.90;58.66;93970.06;5062973;28;20120;-78
2022/08/29 02:14:15;;;;;;;15.63;5.47;;;;;;;19.92;57.67;93967.78;5062516;28;20224;-77
2022/08/29 02:16:40;;;;;;;11.13;5.57;;;;;;;19.95;56.84;93964.34;5062976;28;20307;-78
2022/08/29 02:19:06;;;;;;;14.13;6.07;;;;;;;19.94;57.21;93965.47;5063028;28;20092;-78
2022/08/29 02:21:31;;;;;;;14.95;6.78;;;;;;;19.95;57.43;93967.03;5062781;28;20281;-77
2022/08/29 02:24:00;;;;;;;14.18;6.15;;;;;;;19.90;57.76;93975.47;5062777;28;20028;-77
2022/08/29 02:26:25;;;;;;;12.15;6.43;;;;;;;19.88;58.23;93967.72;5062557;28;20021;-77
2022/08/29 02:28:51;;;;;;;15.95;6.22;;;;;;;19.84;58.60;93966.91;5062816;28;20299;-77
2022/08/29 02:31:19;;;;;;;11.75;6.82;;;;;;;19.78;59.03;93971.09;5062727;28;20028;-77
2022/08/29 02:33:45;;;;;;;17.58;7.97;;;;;;;19.75;59.87;93972.59;5062778;28;20020;-77
2022/08/29 02:36:11;;;;;;;16.30;8.18;;;;;;;19.73;60.50;93972.19;5061871;28;20392;-77
2022/08/29 02:38:37;;;;;;;19.40;8.00;;;;;;;19.74;60.38;93959.44;5062656;28;20264;-77
2022/08/29 02:41:02;;;;;;;11.68;6.97;;;;;;;19.74;60.47;93973.75;5062503;28;20028;-77
2022/08/29 02:43:28;;;;;;;28.23;9.27;;;;;;;19.74;60.73;93971.06;5062696;28;20028;-77
2022/08/29 02:45:53;;;;;;;28.08;7.05;;;;;;;19.73;61.07;93971.41;5062604;28;20047;-76
2022/08/29 02:48:20;;;;;;;18.98;7.60;;;;;;;19.71;61.18;93963.66;5062410;28;20215;-76
2022/08/29 02:50:48;;;;;;;15.68;7.82;;;;;;;19.68;61.26;93960.88;5062396;28;20086;-76
2022/08/29 02:53:17;;;;;;;24.77;7.00;;;;;;;19.63;61.63;93965.47;5062362;28;20025;-77
2022/08/29 02:55:44;;;;;;;11.55;6.93;;;;;;;19.60;61.71;93968.94;5062296;28;20045;-77
2022/08/29 02:58:10;;;;;;;15.70;6.70;;;;;;;19.58;61.47;93970.41;5062532;28;20044;-77
2022/08/29 03:00:35;;;;;;;10.80;6.57;;;;;;;19.55;61.25;93974.66;5062385;28;20108;-77
2022/08/29 03:03:01;;;;;;;11.27;6.53;;;;;;;19.54;61.43;93980.41;5062162;28;20051;-77
2022/08/29 03:05:31;;;;;;;18.20;7.28;;;;;;;19.53;61.43;93985.03;5062371;28;20036;-77
2022/08/29 03:07:57;;;;;;;14.63;6.57;;;;;;;19.51;61.53;93987.34;5062291;28;20025;-77
2022/08/29 03:10:23;;;;;;;15.15;7.03;;;;;;;19.45;61.35;93997.69;5062444;28;20092;-77
2022/08/29 03:12:49;;;;;;;9.57;6.22;;;;;;;19.43;62.08;93991.09;5062251;28;20033;-76
2022/08/29 03:15:16;;;;;;;12.50;6.18;;;;;;;19.42;61.74;93994.94;5062110;28;20369;-76
2022/08/29 03:17:41;;;;;;;14.95;6.63;;;;;;;19.40;60.55;93997.25;5062065;28;20025;-77
2022/08/29 03:20:09;;;;;;;16.45;6.40;;;;;;;19.43;60.13;93999.19;5062147;28;20077;-77
2022/08/29 03:22:34;;;;;;;17.35;7.80;;;;;;;19.44;59.79;93998.06;5062131;28;20048;-77
2022/08/29 03:25:01;;;;;;;18.88;8.23;;;;;;;19.43;59.81;93997.25;5062329;28;20067;-77
2022/08/29 03:27:28;;;;;;;18.35;9.82;;;;;;;19.44;60.62;94000.78;5062156;28;20111;-77
2022/08/29 03:29:54;;;;;;;22.52;12.38;;;;;;;19.45;61.36;93994.22;5062182;28;20021;-77
2022/08/29 03:32:19;;;;;;;30.85;13.68;;;;;;;19.41;61.66;94002.25;5062089;28;20330;-76
2022/08/29 03:34:45;;;;;;;21.67;9.68;;;;;;;19.39;61.29;93996.44;5061982;28;20024;-76
2022/08/29 03:37:10;;;;;;;20.45;10.50;;;;;;;19.39;61.30;94007.25;5061976;28;20029;-76
2022/08/29 03:39:36;;;;;;;16.63;7.70;;;;;;;19.38;61.24;94013.81;5062031;28;20017;-76
2022/08/29 03:42:03;;;;;;;11.50;6.60;;;;;;;19.33;61.40;94007.94;5061964;28;20254;-76
2022/08/29 03:44:31;;;;;;;11.27;6.38;;;;;;;19.30;61.86;94006.75;5061693;28;20058;-76
2022/08/29 03:46:57;;;;;;;17.27;6.15;;;;;;;19.26;62.05;94000.53;5062181;28;20219;-76
2022/08/29 03:49:23;;;;;;;16.10;7.25;;;;;;;19.20;62.43;93994.63;5065571;28;20021;-76
2022/08/29 03:51:49;;;;;;;13.73;6.47;;;;;;;19.22;62.81;94005.88;5065541;28;20056;-77
2022/08/29 03:54:14;;;;;;;11.52;7.25;;;;;;;19.14;63.00;94011.53;5065468;28;20029;-76
2022/08/29 03:56:40;;;;;;;12.75;7.47;;;;;;;19.12;62.98;94005.72;5065543;28;20346;-76
2022/08/29 03:59:05;;;;;;;12.98;7.15;;;;;;;19.11;63.54;94007.66;5065645;28;20025;-79
2022/08/29 04:01:31;;;;;;;16.60;7.22;;;;;;;19.08;63.75;94011.06;5065480;28;20037;-77
2022/08/29 04:03:57;;;;;;;26.25;8.18;;;;;;;19.10;63.85;94016.09;5065293;28;20261;-78
2022/08/29 04:06:23;;;;;;;12.05;7.68;;;;;;;19.10;63.96;94010.69;5065470;28;20021;-77
2022/08/29 04:08:51;;;;;;;21.23;7.55;;;;;;;19.11;63.97;94007.66;5065296;28;20066;-77
2022/08/29 04:11:18;;;;;;;13.07;7.10;;;;;;;19.11;63.77;94017.66;5065603;28;20270;-76
2022/08/29 04:13:44;;;;;;;21.65;7.32;;;;;;;19.11;64.10;94017.66;5065356;28;20021;-77
2022/08/29 04:16:11;;;;;;;13.23;8.00;;;;;;;19.14;64.27;94011.53;5065451;28;20100;-75
2022/08/29 04:18:37;;;;;;;19.00;7.53;;;;;;;19.15;64.31;94018.47;5065168;28;20310;-76
2022/08/29 04:21:04;;;;;;;15.13;7.10;;;;;;;19.18;64.18;94018.53;5065225;28;20070;-76
2022/08/29 04:23:30;;;;;;;12.18;7.60;;;;;;;19.21;63.89;94017.03;5064790;28;20027;-76
2022/08/29 04:25:55;;;;;;;17.08;7.65;;;;;;;19.23;64.12;94014.75;5064955;28;20021;-76
2022/08/29 04:28:22;;;;;;;15.45;7.47;;;;;;;19.27;63.77;94020.97;5064827;28;20028;-76
2022/08/29 04:30:49;;;;;;;16.55;8.35;;;;;;;19.32;64.14;94033.41;5064890;28;20222;-77
2022/08/29 04:33:15;;;;;;;27.27;14.10;;;;;;;19.35;63.76;94027.28;5064565;28;20040;-76
2022/08/29 04:35:41;;;;;;;21.20;10.88;;;;;;;19.40;63.72;94030.44;5064774;28;20040;-75
2022/08/29 04:38:07;;;;;;;16.65;8.43;;;;;;;19.44;63.99;94028.56;5065120;28;20036;-75
2022/08/29 04:40:33;;;;;;;12.00;7.85;;;;;;;19.49;63.82;94037.50;5064940;28;20231;-75
2022/08/29 04:42:59;;;;;;;13.13;6.57;;;;;;;19.52;63.07;94034.88;5064558;28;20052;-76
2022/08/29 04:45:25;;;;;;;10.60;6.75;;;;;;;19.57;63.54;94044.56;5063412;28;20040;-76
2022/08/29 04:47:51;;;;;;;17.48;7.22;;;;;;;19.63;63.71;94043.88;5064573;28;20025;-76
2022/08/29 04:50:22;;;;;;;15.63;6.80;;;;;;;19.70;63.42;94042.41;5064171;28;20051;-76
2022/08/29 04:52:49;;;;;;;16.33;7.38;;;;;;;19.76;63.12;94051.78;5064502;28;20231;-76
2022/08/29 04:55:16;;;;;;;12.05;7.05;;;;;;;19.83;63.23;94041.84;5064416;28;20155;-76
2022/08/29 04:57:41;;;;;;;25.05;7.82;;;;;;;19.83;63.21;94047.25;5063201;28;20193;-76
2022/08/29 05:00:12;;;;;;;17.00;8.05;;;;;;;19.93;62.99;94050.50;5063567;28;20043;-76
2022/08/29 05:02:39;;;;;;;15.68;7.60;;;;;;;20.02;63.27;94048.25;5064428;28;20139;-76
2022/08/29 05:05:06;;;;;;;20.60;7.75;;;;;;;20.12;63.04;94053.03;5064301;28;20017;-76
2022/08/29 05:07:32;;;;;;;24.80;9.50;;;;;;;20.26;61.39;94048.94;5064072;28;20028;-78
2022/08/29 05:10:01;;;;;;;21.42;9.10;;;;;;;20.35;61.14;94057.53;5064171;28;20025;-77
2022/08/29 05:12:30;;;;;;;23.27;8.88;;;;;;;20.47;60.77;94061.91;5062923;28;20021;-78
2022/08/29 05:14:56;;;;;;;21.88;9.18;;;;;;;20.60;60.38;94071.38;5063790;28;20028;-77
2022/08/29 05:17:22;;;;;;;35.42;10.27;;;;;;;20.67;60.16;94065.25;5064035;28;20029;-77
2022/08/29 05:19:48;;;;;;;29.02;10.60;;;;;;;20.78;60.56;94068.81;5062571;28;20033;-78
2022/08/29 05:22:15;;;;;;;25.83;10.90;;;;;;;20.83;59.93;94071.19;5063733;28;20031;-78
2022/08/29 05:24:41;;;;;;;26.90;10.43;;;;;;;20.88;59.66;94076.25;5063993;28;20200;-78
2022/08/29 05:27:09;;;;;;;30.38;9.95;;;;;;;20.90;60.09;94073.97;5063911;28;20028;-77
2022/08/29 05:29:46;;;;;;;31.67;11.05;;;;;;;20.94;59.80;94074.00;5063462;28;20031;-77
2022/08/29 05:32:17;;;;;;;30.63;9.70;;;;;;;21.01;59.90;94074.84;5063397;28;20025;-73
2022/08/29 05:34:44;;;;;;;27.50;9.93;;;;;;;20.99;59.94;94082.56;5063146;28;20138;-73
2022/08/29 05:37:14;;;;;;;24.33;10.48;;;;;;;21.00;60.02;94084.16;5063268;28;20262;-72
2022/08/29 05:39:40;;;;;;;23.58;9.73;;;;;;;21.02;60.13;94086.47;5063385;28;20106;-73
2022/08/29 05:42:07;;;;;;;25.80;10.00;;;;;;;21.01;58.83;94085.69;5062072;28;20032;-73
2022/08/29 05:44:34;;;;;;;24.60;10.55;;;;;;;20.93;59.29;94084.06;5063118;28;20266;-72
2022/08/29 05:47:00;;;;;;;20.67;10.07;;;;;;;20.93;59.11;94089.50;5063037;28;20025;-71
2022/08/29 05:49:26;;;;;;;21.92;10.02;;;;;;;20.94;58.98;94091.03;5063334;28;20036;-72
2022/08/29 05:51:53;;;;;;;21.25;9.85;;;;;;;21.01;59.13;94084.91;5063010;28;20033;-72
2022/08/29 05:54:19;;;;;;;14.50;8.73;;;;;;;21.06;59.66;94091.91;5062539;28;20339;-71
2022/08/29 05:56:44;;;;;;;22.98;10.48;;;;;;;21.07;59.01;94088.84;5062743;28;20021;-72
2022/08/29 05:59:12;;;;;;;25.15;10.32;;;;;;;21.11;58.76;94097.00;5063140;28;20019;-70
2022/08/29 06:01:38;;;;;;;25.25;9.30;;;;;;;21.09;59.46;94091.19;5062973;28;20021;-71
2022/08/29 06:04:04;;;;;;;27.33;11.32;;;;;;;21.07;59.54;94094.25;5062632;28;20016;-71
2022/08/29 06:06:29;;;;;;;26.20;10.48;;;;;;;21.12;58.45;94101.25;5062703;28;20040;-71
2022/08/29 06:08:56;;;;;;;32.53;10.90;;;;;;;21.10;57.59;94098.91;5062362;28;20012;-72
2022/08/29 06:11:25;;;;;;;24.95;11.93;;;;;;;21.14;59.44;94102.44;5062508;28;20116;-72
2022/08/29 06:13:51;;;;;;;26.08;10.77;;;;;;;21.11;59.74;94097.00;5062550;28;20095;-71
2022/08/29 06:16:19;;;;;;;21.38;10.32;;;;;;;21.06;58.96;94095.41;5062656;28;20057;-71
2022/08/29 06:18:45;;;;;;;25.35;10.75;;;;;;;21.00;59.34;94099.59;5062226;28;20111;-72
2022/08/29 06:21:11;;;;;;;15.25;10.70;;;;;;;20.96;60.06;94104.22;5062584;28;20023;-72
2022/08/29 06:23:39;;;;;;;21.63;11.10;;;;;;;20.95;59.88;94103.44;5062268;28;20020;-72
2022/08/29 06:26:05;;;;;;;28.17;11.23;;;;;;;20.97;60.15;94101.13;5062457;28;20029;-72
2022/08/29 06:28:33;;;;;;;32.47;11.40;;;;;;;21.09;60.24;94099.31;5062271;28;20017;-72
2022/08/29 06:31:28;;;;;;;27.27;11.65;;;;;;;21.22;59.78;94095.91;5062278;28;20017;-72
2022/08/29 06:33:56;;;;;;;32.83;13.63;;;;;;;21.35;59.61;94093.72;5052021;28;20370;-73
2022/08/29 06:36:24;;;;;;;24.95;12.02;;;;;;;21.43;60.00;94095.34;5062094;28;20144;-72
2022/08/29 06:38:50;;;;;;;19.00;11.00;;;;;;;21.55;58.92;94094.25;5062092;28;20044;-73
2022/08/29 06:41:16;;;;;;;28.75;11.73;;;;;;;21.59;58.31;94092.34;5062332;28;20096;-79
2022/08/29 06:43:42;;;;;;;22.17;11.98;;;;;;;21.69;58.38;94090.88;5062231;28;20319;-78
2022/08/29 06:46:17;;;;;;;29.45;11.07;;;;;;;21.82;57.94;94097.56;5062035;28;20028;-72
2022/08/29 06:48:43;;;;;;;33.20;11.63;;;;;;;21.92;57.59;94106.13;5062092;28;20088;-77
2022/08/29 06:51:09;;;;;;;24.70;10.75;;;;;;;22.02;56.81;94102.69;5062292;28;20052;-83
2022/08/29 06:53:34;;;;;;;19.35;10.35;;;;;;;22.15;55.66;94097.72;5062665;28;20021;-80
2022/08/29 06:56:04;;;;;;;14.63;9.25;;;;;;;22.24;55.61;94109.78;5062556;28;20027;-83
2022/08/29 06:58:30;;;;;;;26.27;10.23;;;;;;;22.35;55.06;94103.66;5063546;28;20096;-81
2022/08/29 07:00:55;;;;;;;21.48;10.55;;;;;;;22.42;55.52;94107.16;5063049;28;20024;-82
2022/08/29 07:03:21;;;;;;;21.95;10.13;;;;;;;22.52;55.36;94110.31;5062635;28;20047;-79
2022/08/29 07:05:53;;;;;;;25.23;11.00;;;;;;;22.57;55.17;94110.72;5062525;28;20088;-82
2022/08/29 07:08:19;;;;;;;28.23;10.50;;;;;;;22.61;55.31;94111.50;5063400;28;20043;-83
2022/08/29 07:10:45;;;;;;;18.77;10.05;;;;;;;22.75;54.67;94113.47;5062405;28;20263;-81
2022/08/29 07:13:10;;;;;;;25.65;10.25;;;;;;;22.86;53.28;94121.66;5062628;28;20058;-80
2022/08/29 07:15:36;;;;;;;27.40;9.88;;;;;;;22.88;53.58;94124.78;5061651;28;20040;-78
2022/08/29 07:18:01;;;;;;;25.17;10.43;;;;;;;22.83;53.03;94122.41;5062696;28;20064;-80
2022/08/29 07:20:27;;;;;;;19.35;10.05;;;;;;;22.87;52.99;94115.03;5064084;28;20365;-83
2022/08/29 07:22:52;;;;;;;24.92;10.05;;;;;;;22.91;53.19;94124.00;5064655;28;20430;-90
2022/08/29 07:25:19;;;;;;;29.52;9.63;;;;;;;23.01;52.09;94125.97;5066312;28;20021;-83
2022/08/29 07:27:46;;;;;;;19.35;9.50;;;;;;;22.98;53.55;94120.53;5066584;28;20036;-91
2022/08/29 07:30:16;;;;;;;25.42;9.38;;;;;;;23.00;51.97;94131.78;5065748;28;20205;-86
2022/08/29 07:32:44;;;;;;;27.40;9.40;;;;;;;22.97;52.14;94124.41;5065720;28;20021;-86
2022/08/29 07:35:14;;;;;;;17.98;8.27;;;;;;;22.98;51.96;94128.69;5066735;28;20199;-87
2022/08/29 07:37:40;;;;;;;25.60;8.85;;;;;;;23.18;52.21;94131.81;5067337;28;20095;-83
2022/08/29 07:40:07;;;;;;;25.15;9.45;;;;;;;23.35;51.40;94131.06;5066819;28;20201;-86
2022/08/29 07:42:34;;;;;;;16.55;8.25;;;;;;;23.49;51.87;94133.03;5066449;28;20051;-83
2022/08/29 07:45:00;;;;;;;18.83;8.82;;;;;;;23.57;51.92;94137.31;5065387;28;20025;-84
2022/08/29 07:47:26;;;;;;;17.13;8.48;;;;;;;23.70;50.98;94134.94;5065238;28;20020;-86
2022/08/29 07:49:51;;;;;;;19.00;9.40;;;;;;;23.78;50.26;94135.75;5065541;28;20024;-85
2022/08/29 07:52:17;;;;;;;20.40;9.15;;;;;;;23.82;50.36;94140.03;5066563;28;20060;-84
2022/08/29 07:54:43;;;;;;;22.42;8.05;;;;;;;23.95;50.92;94126.00;5065840;28;20063;-84
2022/08/29 07:57:09;;;;;;;18.45;7.40;;;;;;;24.10;50.37;94132.97;5065137;28;20222;-81
2022/08/29 07:59:34;;;;;;;21.63;8.32;;;;;;;24.34;49.48;94125.13;5065170;28;20081;-82
2022/08/29 08:01:59;;;;;;;19.15;7.82;;;;;;;24.34;48.70;94127.84;5065185;28;20088;-79
2022/08/29 08:04:25;;;;;;;17.98;8.27;;;;;;;24.46;48.69;94126.63;5065970;28;20091;-79
2022/08/29 08:06:50;;;;;;;22.50;8.25;;;;;;;24.62;47.67;94119.56;5065807;28;20020;-77
2022/08/29 08:09:16;;;;;;;25.63;8.18;;;;;;;24.76;47.69;94124.19;5065125;28;20023;-80
2022/08/29 08:11:42;;;;;;;26.83;7.93;;;;;;;24.93;47.58;94117.06;5064806;28;20218;-82
2022/08/29 08:14:08;;;;;;;15.10;6.93;;;;;;;25.05;48.31;94120.53;5064705;28;20059;-85
2022/08/29 08:16:34;;;;;;;20.50;8.38;;;;;;;25.02;47.97;94120.16;5064989;28;20338;-87
2022/08/29 08:18:59;;;;;;;19.30;8.27;;;;;;;25.11;47.88;94113.47;5063552;28;20029;-82
2022/08/29 08:21:25;;;;;;;20.15;8.23;;;;;;;25.11;47.26;94113.47;5065100;28;20099;-82
2022/08/29 08:23:51;;;;;;;17.05;7.30;;;;;;;25.06;47.52;94117.41;5064861;28;20315;-83
2022/08/29 08:26:17;;;;;;;21.67;7.10;;;;;;;25.11;48.75;94111.50;5064612;28;20025;-85
2022/08/29 08:28:43;;;;;;;17.23;7.97;;;;;;;25.09;48.87;94104.91;5064414;28;20028;-78
2022/08/29 08:31:11;;;;;;;17.02;7.20;;;;;;;25.20;48.58;94105.63;5064990;28;20035;-79
2022/08/29 08:33:37;;;;;;;11.68;6.28;;;;;;;25.19;49.25;94110.28;5064757;28;20262;-78
2022/08/29 08:36:18;;;;;;;18.85;6.78;;;;;;;25.26;47.81;94114.97;5064707;28;20040;-81
2022/08/29 08:38:44;;;;;;;12.05;7.03;;;;;;;25.32;48.34;94113.38;5065402;28;20100;-78
2022/08/29 08:41:53;;;;;;;17.05;8.07;;;;;;;25.31;47.76;94119.22;5065154;28;20037;-81
2022/08/29 08:44:23;;;;;;;17.25;7.10;;;;;;;25.27;49.68;94119.25;5042867;28;20359;-81
2022/08/29 08:46:58;;;;;;;16.55;7.55;;;;;;;25.28;48.37;94107.16;5043864;28;20033;-79
2022/08/29 08:49:35;;;;;;;14.80;7.32;;;;;;;25.19;49.28;94121.19;5056500;28;20037;-78
2022/08/29 08:52:05;;;;;;;26.73;7.38;;;;;;;24.91;49.55;94113.22;5065199;28;20117;-81
2022/08/29 08:54:42;;;;;;;19.98;7.70;;;;;;;24.94;50.10;94109.69;5065360;28;20025;-81
2022/08/29 08:57:10;;;;;;;16.98;6.85;;;;;;;24.96;48.89;94108.13;5065083;28;20119;-77
2022/08/29 08:59:42;;;;;;;13.27;6.75;;;;;;;24.89;50.85;94110.88;5063899;28;20032;-76
2022/08/29 09:02:33;;;;;;;19.73;7.30;;;;;;;24.89;50.77;94112.81;5064960;28;20059;-78
2022/08/29 09:05:18;;;;;;;16.73;7.10;;;;;;;24.80;51.04;94105.88;5064772;28;20238;-78
2022/08/29 09:07:56;;;;;;;12.68;6.65;;;;;;;24.83;50.82;94104.28;5064115;28;20020;-78
2022/08/29 09:10:49;;;;;;;15.02;6.78;;;;;;;24.66;51.03;94107.91;5063748;28;20193;-89
2022/08/29 09:13:28;;;;;;;16.55;7.30;;;;;;;24.69;51.83;94107.88;5065665;28;20025;-83
2022/08/29 09:15:57;;;;;;;16.23;6.75;;;;;;;24.74;52.85;94104.72;5065013;28;20029;-82
2022/08/29 09:18:28;;;;;;;12.55;5.97;;;;;;;24.54;51.88;94112.59;5065101;28;20027;-84
2022/08/29 09:20:54;;;;;;;19.90;7.47;;;;;;;24.48;52.48;94114.16;5063960;28;20025;-80
2022/08/29 09:23:24;;;;;;;16.10;6.63;;;;;;;24.50;53.17;94109.13;5064779;28;20210;-82
2022/08/29 09:25:50;;;;;;;18.08;8.40;;;;;;;24.55;53.06;94106.00;5064936;28;20025;-84
2022/08/29 09:28:16;;;;;;;14.18;8.13;;;;;;;24.66;52.68;94110.63;5064771;28;20312;-87
2022/08/29 09:31:03;;;;;;;13.63;7.20;;;;;;;24.75;52.81;94109.03;5065993;28;20040;-84
2022/08/29 09:33:42;;;;;;;17.83;7.50;;;;;;;24.73;52.59;94102.41;5063631;28;20082;-73
2022/08/29 09:36:32;;;;;;;15.75;7.30;;;;;;;24.74;52.83;94101.25;5063046;28;20029;-73
2022/08/29 09:39:13;;;;;;;14.80;6.65;;;;;;;24.49;53.32;94096.66;5062879;28;20258;-73
2022/08/29 09:41:38;;;;;;;18.73;7.13;;;;;;;24.47;53.84;94087.34;5063062;28;20082;-73
2022/08/29 09:44:08;;;;;;;19.42;7.72;;;;;;;24.39;53.97;94090.09;5062938;28;20021;-73
2022/08/29 09:46:33;;;;;;;15.13;7.18;;;;;;;24.42;54.73;94091.22;5062617;28;20087;-73
2022/08/29 09:48:59;;;;;;;15.75;7.35;;;;;;;24.47;54.43;94093.56;5062964;28;20311;-73
2022/08/29 09:51:40;;;;;;;13.93;7.60;;;;;;;24.52;54.50;94084.22;5061521;28;20215;-73
2022/08/29 09:54:11;;;;;;;15.30;7.68;;;;;;;24.54;53.65;94074.47;5062744;28;20024;-73
2022/08/29 09:56:47;;;;;;;11.73;7.15;;;;;;;24.65;52.84;94068.19;5061748;28;20088;-72
2022/08/29 09:59:37;;;;;;;11.52;6.25;;;;;;;24.68;53.67;94081.03;5062724;28;20021;-72
2022/08/29 10:02:31;;;;;;;14.10;6.82;;;;;;;24.72;52.56;94073.59;5062774;28;20025;-72
2022/08/29 10:05:09;;;;;;;17.75;6.20;;;;;;;24.74;50.64;94080.19;5061941;28;20033;-71
2022/08/29 10:07:46;;;;;;;20.48;7.35;;;;;;;24.75;50.45;94076.31;5062737;28;20020;-70
2022/08/29 10:10:16;;;;;;;15.68;6.97;;;;;;;24.77;51.34;94071.25;5061161;28;20345;-70
2022/08/29 10:13:07;;;;;;;18.17;6.57;;;;;;;24.83;49.62;94068.84;5062621;28;20044;-71
2022/08/29 10:15:38;;;;;;;15.23;6.93;;;;;;;24.82;51.75;94062.63;5062529;28;20025;-71
2022/08/29 10:18:23;;;;;;;18.05;8.20;;;;;;;24.84;49.52;94062.25;5062443;28;20044;-71
2022/08/29 10:20:51;;;;;;;13.57;8.05;;;;;;;24.94;50.95;94049.72;5062587;28;20096;-70
2022/08/29 10:23:30;;;;;;;12.75;6.88;;;;;;;24.96;49.35;94039.19;5062199;28;20082;-71
2022/08/29 10:25:58;;;;;;;18.92;6.32;;;;;;;25.01;50.17;94050.44;5062394;28;20021;-71
2022/08/29 10:28:47;;;;;;;11.52;6.93;;;;;;;25.01;49.03;94053.19;5062481;28;20215;-71
2022/08/29 10:31:26;;;;;;;18.60;7.00;;;;;;;24.92;50.42;94058.28;5062454;28;20033;-71
2022/08/29 10:34:15;;;;;;;18.20;6.15;;;;;;;24.85;49.23;94052.88;5062180;28;20033;-71
2022/08/29 10:36:48;;;;;;;21.05;6.85;;;;;;;24.79;50.65;94049.00;5061181;28;20071;-71
2022/08/29 10:39:28;;;;;;;12.05;6.47;;;;;;;24.82;50.91;94034.59;5062380;28;20044;-71
2022/08/29 10:42:14;;;;;;;16.33;6.97;;;;;;;24.82;50.46;94031.88;5062405;28;20051;-70
2022/08/29 10:45:08;;;;;;;14.75;7.60;;;;;;;24.83;52.14;94027.97;5062276;28;20021;-70
2022/08/29 10:47:36;;;;;;;23.02;8.32;;;;;;;24.85;53.41;94035.75;5062146;28;20017;-70
2022/08/29 10:50:18;;;;;;;15.75;6.93;;;;;;;24.84;53.46;94029.53;5062126;28;20052;-70
2022/08/29 10:52:54;;;;;;;17.02;6.95;;;;;;;24.86;54.19;94038.09;5061433;28;20021;-70
2022/08/29 10:55:19;;;;;;;19.38;8.52;;;;;;;24.88;53.94;94024.81;5060617;28;20049;-70
2022/08/29 10:58:03;;;;;;;16.00;7.10;;;;;;;24.97;54.53;94035.28;5061800;28;20091;-71
2022/08/29 11:00:54;;;;;;;12.30;6.90;;;;;;;25.00;55.00;94035.25;5066208;28;20037;-71
2022/08/29 11:03:47;;;;;;;16.88;6.32;;;;;;;24.98;55.36;94026.69;5066091;28;20025;-70
2022/08/29 11:06:18;;;;;;;14.43;8.20;;;;;;;24.99;56.52;94025.53;5066342;28;20020;-71
2022/08/29 11:09:04;;;;;;;11.38;7.60;;;;;;;25.02;57.62;94022.00;5066024;28;20080;-70
2022/08/29 11:11:32;;;;;;;17.60;8.50;;;;;;;25.05;57.81;94011.47;5065655;28;20204;-72
2022/08/29 11:14:04;;;;;;;23.65;8.45;;;;;;;25.09;59.55;94017.66;5066155;28;20033;-72
2022/08/29 11:16:37;;;;;;;22.48;8.55;;;;;;;25.11;60.31;94010.63;5066033;28;20025;-74
2022/08/29 11:19:36;;;;;;;22.85;7.97;;;;;;;25.13;60.23;94002.03;5066052;28;20033;-76
2022/08/29 11:22:25;;;;;;;18.98;8.73;;;;;;;25.22;59.83;93996.94;5061817;28;20391;-72
2022/08/29 11:25:10;;;;;;;22.20;8.50;;;;;;;25.34;60.41;93990.97;5065852;28;20020;-76
2022/08/29 11:28:16;;;;;;;22.40;9.27;;;;;;;25.56;58.11;93982.56;5065759;28;20037;-75
2022/08/29 11:30:53;;;;;;;18.58;7.68;;;;;;;25.83;54.03;93975.25;5066608;28;20021;-75
2022/08/29 11:33:45;;;;;;;16.92;6.35;;;;;;;26.12;50.69;93971.44;5065876;28;20268;-79
2022/08/29 11:36:24;;;;;;;16.15;5.90;;;;;;;26.44;46.73;93965.53;5065472;28;20021;-76
2022/08/29 11:39:12;;;;;;;18.17;5.93;;;;;;;26.82;46.07;93963.41;5066311;28;20236;-80